Time;durP1;ratioP1;P1;durP2;ratioP2;P2;SDS_P1;SDS_P2;PMS_P1;PMS_P2;Temp;Humidity;BMP_temperature;BMP_pressure;BME280_temperature;BME280_humidity;BME280_pressure;Samples;Min_cycle;Max_cycle;Signal;HPM_P1;HPM_P2
2021/01/06 00:00:06;;;;;;;44.08;22.80;;;5.80;99.90;;;;;;5092343;28;20024;-76
2021/01/06 00:02:32;;;;;;;37.50;22.55;;;5.90;99.90;;;;;;5088942;28;20066;-76
2021/01/06 00:04:58;;;;;;;37.63;20.27;;;5.90;99.90;;;;;;5090740;28;20473;-76
2021/01/06 00:07:23;;;;;;;31.58;19.55;;;5.90;99.90;;;;;;5092323;28;20016;-76
2021/01/06 00:09:49;;;;;;;33.55;18.92;;;5.90;99.90;;;;;;5085437;28;20036;-74
2021/01/06 00:12:18;;;;;;;31.20;18.00;;;5.90;99.90;;;;;;5055649;28;20025;-77
2021/01/06 00:14:45;;;;;;;26.55;17.08;;;5.90;99.90;;;;;;5090939;28;20020;-75
2021/01/06 00:17:11;;;;;;;28.02;17.88;;;5.90;99.90;;;;;;5091001;28;20549;-76
2021/01/06 00:19:36;;;;;;;30.95;20.65;;;6.00;99.90;;;;;;5090024;28;20115;-76
2021/01/06 00:22:02;;;;;;;31.52;18.80;;;6.00;99.90;;;;;;5090400;28;20103;-75
2021/01/06 00:24:28;;;;;;;28.48;16.70;;;6.00;99.90;;;;;;5073018;28;20047;-76
2021/01/06 00:26:54;;;;;;;34.95;19.15;;;6.00;99.90;;;;;;5088350;28;20024;-75
2021/01/06 00:29:19;;;;;;;38.75;20.23;;;6.00;99.90;;;;;;5067835;28;20032;-75
2021/01/06 00:31:45;;;;;;;48.13;24.85;;;6.10;99.90;;;;;;5090270;28;20068;-76
2021/01/06 00:34:12;;;;;;;63.40;28.00;;;6.10;99.90;;;;;;5071914;28;20058;-74
2021/01/06 00:36:38;;;;;;;60.38;28.25;;;6.10;99.90;;;;;;5092069;28;20024;-73
2021/01/06 00:39:05;;;;;;;52.60;26.92;;;6.10;99.90;;;;;;5069816;28;20027;-74
2021/01/06 00:41:34;;;;;;;53.13;26.10;;;6.10;99.90;;;;;;5092936;28;20032;-75
2021/01/06 00:44:01;;;;;;;44.17;25.33;;;6.00;99.90;;;;;;5093283;28;20024;-75
2021/01/06 00:46:30;;;;;;;50.25;25.35;;;6.00;99.90;;;;;;5089820;28;20024;-78
2021/01/06 00:48:56;;;;;;;56.13;24.92;;;6.00;99.90;;;;;;5090250;28;20031;-78
2021/01/06 00:51:22;;;;;;;43.05;22.23;;;6.00;99.90;;;;;;5091577;28;20462;-74
2021/01/06 00:53:48;;;;;;;42.90;20.00;;;5.90;99.90;;;;;;5089895;28;20039;-75
2021/01/06 00:56:13;;;;;;;34.30;19.45;;;6.00;99.90;;;;;;5090305;28;20024;-74
2021/01/06 00:58:39;;;;;;;39.28;20.13;;;6.10;99.90;;;;;;5091124;28;20080;-75
2021/01/06 01:01:05;;;;;;;39.60;18.35;;;6.20;99.90;;;;;;5090772;28;20462;-76
2021/01/06 01:03:31;;;;;;;32.55;16.92;;;6.30;99.90;;;;;;5093001;28;20059;-73
2021/01/06 01:05:57;;;;;;;30.65;15.43;;;6.50;99.90;;;;;;5093269;28;20024;-74
2021/01/06 01:08:23;;;;;;;24.98;13.98;;;6.50;99.90;;;;;;5076485;28;20024;-75
2021/01/06 01:10:52;;;;;;;23.55;12.00;;;6.50;99.90;;;;;;5077359;28;20035;-76
2021/01/06 01:13:26;;;;;;;18.63;9.88;;;6.60;99.90;;;;;;5091882;28;20073;-76
2021/01/06 01:15:55;;;;;;;15.77;9.65;;;6.70;99.90;;;;;;5093781;28;20061;-74
2021/01/06 01:18:26;;;;;;;19.10;10.45;;;6.80;99.90;;;;;;5093366;28;20028;-75
2021/01/06 01:20:55;;;;;;;14.40;10.50;;;6.80;99.90;;;;;;5108456;28;20069;-73
2021/01/06 01:23:24;;;;;;;25.45;11.90;;;6.80;99.90;;;;;;5100276;28;20106;-76
2021/01/06 01:25:50;;;;;;;17.45;10.07;;;6.80;99.90;;;;;;5094594;28;20031;-73
2021/01/06 01:28:18;;;;;;;16.92;10.15;;;6.80;99.90;;;;;;5094120;28;20085;-73
2021/01/06 01:30:44;;;;;;;14.85;9.80;;;6.80;99.90;;;;;;5041634;28;789055;-74
2021/01/06 01:33:12;;;;;;;15.23;9.35;;;6.80;99.90;;;;;;5088983;28;20102;-75
2021/01/06 01:35:39;;;;;;;17.27;9.50;;;6.80;99.90;;;;;;5077123;28;20024;-76
2021/01/06 01:38:06;;;;;;;16.63;9.23;;;6.80;99.90;;;;;;5096165;28;20032;-74
2021/01/06 01:40:38;;;;;;;17.20;9.95;;;6.90;99.90;;;;;;5097780;28;20024;-75
2021/01/06 01:43:14;;;;;;;16.40;9.77;;;6.80;99.90;;;;;;5089337;28;20064;-74
2021/01/06 01:45:40;;;;;;;17.35;9.23;;;6.80;99.90;;;;;;5093480;28;20023;-75
2021/01/06 01:48:21;;;;;;;14.18;7.85;;;6.90;99.90;;;;;;5094662;28;20032;-73
2021/01/06 01:50:48;;;;;;;15.27;9.07;;;6.80;99.90;;;;;;5087796;28;20435;-74
2021/01/06 01:53:19;;;;;;;16.15;9.20;;;6.90;99.90;;;;;;5077131;28;20053;-75
2021/01/06 01:55:48;;;;;;;14.18;8.35;;;6.80;99.90;;;;;;5094190;28;20020;-76
2021/01/06 01:58:20;;;;;;;13.35;7.70;;;6.80;99.90;;;;;;5068511;28;20056;-76
2021/01/06 02:00:48;;;;;;;14.60;7.82;;;6.90;99.90;;;;;;5091145;28;20079;-73
2021/01/06 02:03:24;;;;;;;12.65;7.47;;;6.90;99.90;;;;;;5095143;28;20374;-74
2021/01/06 02:06:13;;;;;;;15.80;7.78;;;7.00;99.90;;;;;;5096050;28;20032;-74
2021/01/06 02:08:52;;;;;;;16.17;8.85;;;7.00;99.90;;;;;;5072073;28;20020;-74
2021/01/06 02:11:27;;;;;;;11.75;7.75;;;6.90;99.90;;;;;;5094711;28;20024;-75
2021/01/06 02:14:15;;;;;;;12.93;7.28;;;6.90;99.90;;;;;;5076221;28;20028;-75
2021/01/06 02:17:04;;;;;;;19.85;8.77;;;6.90;99.90;;;;;;5065830;28;20486;-75
2021/01/06 02:19:36;;;;;;;25.15;12.70;;;6.80;99.90;;;;;;5094405;28;20377;-76
2021/01/06 02:22:06;;;;;;;37.33;16.85;;;6.70;99.90;;;;;;5077252;28;20024;-76
2021/01/06 02:24:33;;;;;;;33.92;14.05;;;6.60;99.90;;;;;;5094973;28;20101;-75
2021/01/06 02:26:59;;;;;;;32.53;17.25;;;6.60;99.90;;;;;;5095207;28;20016;-76
2021/01/06 02:29:27;;;;;;;27.50;14.38;;;6.40;99.90;;;;;;5074403;28;20031;-75
2021/01/06 02:31:53;;;;;;;27.90;14.45;;;6.40;99.90;;;;;;5091593;28;20056;-75
2021/01/06 02:34:20;;;;;;;25.50;11.45;;;6.30;99.90;;;;;;5074933;28;20035;-75
2021/01/06 02:36:46;;;;;;;24.90;11.07;;;6.40;99.90;;;;;;5057823;28;20029;-75
2021/01/06 02:39:12;;;;;;;20.77;10.07;;;6.40;99.90;;;;;;5076493;28;20031;-76
2021/01/06 02:41:39;;;;;;;15.65;8.65;;;6.50;99.90;;;;;;5094839;28;20032;-75
2021/01/06 02:44:07;;;;;;;15.35;8.60;;;6.60;99.90;;;;;;5094600;28;20020;-75
2021/01/06 02:46:33;;;;;;;16.70;8.75;;;6.60;99.90;;;;;;5086332;28;20031;-75
2021/01/06 02:49:00;;;;;;;19.63;10.15;;;6.60;99.90;;;;;;5090943;28;20027;-76
2021/01/06 02:51:49;;;;;;;17.60;9.93;;;6.70;99.90;;;;;;5084378;28;20466;-75
2021/01/06 02:54:25;;;;;;;25.90;13.38;;;6.70;99.90;;;;;;5094497;28;20024;-75
2021/01/06 02:56:55;;;;;;;29.80;14.40;;;6.60;99.90;;;;;;5076652;28;20042;-75
2021/01/06 02:59:24;;;;;;;27.80;13.25;;;6.60;99.90;;;;;;5079759;28;20028;-75
2021/01/06 03:01:53;;;;;;;26.20;12.25;;;6.60;99.90;;;;;;5094588;28;20043;-75
2021/01/06 03:04:23;;;;;;;25.50;8.80;;;6.50;99.90;;;;;;5090719;28;20025;-76
2021/01/06 03:06:55;;;;;;;14.75;8.00;;;6.60;99.90;;;;;;5084366;28;20047;-75
2021/01/06 03:09:26;;;;;;;9.60;5.43;;;6.50;99.90;;;;;;5076981;28;20028;-75
2021/01/06 03:11:52;;;;;;;8.65;5.72;;;6.60;99.90;;;;;;5084380;28;20081;-76
2021/01/06 03:14:18;;;;;;;11.25;5.53;;;6.70;99.90;;;;;;5091702;28;20027;-76
2021/01/06 03:16:44;;;;;;;9.27;5.80;;;6.80;99.90;;;;;;5079090;28;20029;-76
2021/01/06 03:19:11;;;;;;;10.63;5.28;;;6.90;99.90;;;;;;5076429;28;20039;-75
2021/01/06 03:21:39;;;;;;;10.00;5.30;;;6.90;99.90;;;;;;5085623;28;20020;-76
2021/01/06 03:24:08;;;;;;;8.30;5.28;;;7.00;99.90;;;;;;5085701;28;20453;-76
2021/01/06 03:26:35;;;;;;;9.40;5.40;;;7.00;99.90;;;;;;5069971;28;20432;-75
2021/01/06 03:29:01;;;;;;;8.63;5.13;;;7.00;99.90;;;;;;5093917;28;20104;-76
2021/01/06 03:31:45;;;;;;;12.77;6.00;;;7.10;99.90;;;;;;5094012;28;20541;-76
2021/01/06 03:34:25;;;;;;;17.35;8.55;;;7.00;99.90;;;;;;5091320;28;20052;-76
2021/01/06 03:37:11;;;;;;;15.68;8.45;;;7.00;99.90;;;;;;5079356;28;20043;-75
2021/01/06 03:40:02;;;;;;;21.83;10.30;;;6.90;99.90;;;;;;5094215;28;20032;-75
2021/01/06 03:42:29;;;;;;;25.50;11.23;;;6.70;99.90;;;;;;5093620;28;20024;-75
2021/01/06 03:44:55;;;;;;;26.00;10.95;;;6.60;99.90;;;;;;5076093;28;20043;-75
2021/01/06 03:47:27;;;;;;;19.20;9.68;;;6.50;99.90;;;;;;5075187;28;20025;-74
2021/01/06 03:50:04;;;;;;;14.50;9.18;;;6.40;99.90;;;;;;5084313;28;20525;-75
2021/01/06 03:52:59;;;;;;;20.48;9.27;;;6.30;99.90;;;;;;5075584;28;20073;-75
2021/01/06 03:55:39;;;;;;;16.98;8.95;;;6.30;99.90;;;;;;5092828;28;20035;-75
2021/01/06 03:58:06;;;;;;;16.13;9.38;;;6.30;99.90;;;;;;5073214;28;20021;-76
2021/01/06 04:00:43;;;;;;;17.20;9.30;;;6.20;99.90;;;;;;5087456;28;20074;-75
2021/01/06 04:03:25;;;;;;;22.15;10.43;;;6.20;99.90;;;;;;5055158;28;20029;-75
2021/01/06 04:05:52;;;;;;;23.98;13.80;;;6.20;99.90;;;;;;5087558;28;20470;-76
2021/01/06 04:08:29;;;;;;;24.33;12.20;;;6.20;99.90;;;;;;5073335;28;20378;-76
2021/01/06 04:11:01;;;;;;;17.88;10.10;;;6.20;99.90;;;;;;5087533;28;20070;-75
2021/01/06 04:13:29;;;;;;;23.20;9.20;;;6.20;99.90;;;;;;5064512;28;20074;-75
2021/01/06 04:15:55;;;;;;;17.73;10.10;;;6.30;99.90;;;;;;5073333;28;20414;-75
2021/01/06 04:18:21;;;;;;;19.90;10.30;;;6.30;99.90;;;;;;5065142;28;20102;-76
2021/01/06 04:20:46;;;;;;;18.42;9.35;;;6.30;99.90;;;;;;5092285;28;20066;-76
2021/01/06 04:23:16;;;;;;;27.80;10.05;;;6.30;99.90;;;;;;5094616;28;20036;-76
2021/01/06 04:25:44;;;;;;;15.88;8.55;;;6.40;99.90;;;;;;5107502;28;20024;-77
2021/01/06 04:28:14;;;;;;;14.88;8.75;;;6.50;99.90;;;;;;5097470;28;20027;-75
2021/01/06 04:30:47;;;;;;;17.90;7.30;;;6.50;99.90;;;;;;5079803;28;20052;-76
2021/01/06 04:33:46;;;;;;;19.13;6.93;;;6.70;99.90;;;;;;5093264;28;20111;-78
2021/01/06 04:36:16;;;;;;;26.45;7.32;;;6.70;99.90;;;;;;5083221;28;20493;-76
2021/01/06 04:38:45;;;;;;;17.33;7.18;;;6.80;99.90;;;;;;5096186;28;20024;-76
2021/01/06 04:41:20;;;;;;;14.30;6.65;;;6.80;99.90;;;;;;5087483;28;20032;-76
2021/01/06 04:44:01;;;;;;;23.70;6.03;;;6.80;99.90;;;;;;5093561;28;20115;-77
2021/01/06 04:46:45;;;;;;;18.80;6.28;;;6.90;99.90;;;;;;5097441;28;20035;-76
2021/01/06 04:49:33;;;;;;;;;;;6.90;99.90;;;;;;5066018;28;20030;-76
2021/01/06 04:52:02;;;;;;;8.10;4.28;;;7.00;99.90;;;;;;5048819;28;19995;-76
2021/01/06 04:54:43;;;;;;;9.63;4.25;;;6.90;99.90;;;;;;5079504;28;20371;-76
2021/01/06 04:57:14;;;;;;;7.15;3.80;;;6.90;99.90;;;;;;5082038;28;20020;-76
2021/01/06 04:59:52;;;;;;;4.93;3.45;;;6.90;99.90;;;;;;5095258;28;20046;-75
2021/01/06 05:02:56;;;;;;;5.95;3.45;;;6.90;99.90;;;;;;5098385;28;20032;-76
2021/01/06 05:06:02;;;;;;;6.73;3.90;;;6.90;99.90;;;;;;5089017;28;20114;-76
2021/01/06 05:08:47;;;;;;;6.00;3.75;;;6.90;99.90;;;;;;5066044;28;20106;-75
2021/01/06 05:11:22;;;;;;;7.10;3.92;;;7.00;99.90;;;;;;5067094;28;20062;-76
2021/01/06 05:13:51;;;;;;;8.32;5.38;;;7.00;99.90;;;;;;5093736;28;20031;-78
2021/01/06 05:16:41;;;;;;;13.93;7.20;;;7.00;99.90;;;;;;5093614;28;20043;-76
2021/01/06 05:19:28;;;;;;;28.58;9.65;;;7.00;99.90;;;;;;5096346;28;20020;-76
2021/01/06 05:21:54;;;;;;;17.85;9.05;;;7.00;99.90;;;;;;5091981;28;20063;-76
2021/01/06 05:24:30;;;;;;;17.90;8.98;;;6.90;99.90;;;;;;5090351;28;20028;-76
2021/01/06 05:27:14;;;;;;;16.90;7.20;;;6.80;99.90;;;;;;5093603;28;20016;-77
2021/01/06 05:30:07;;;;;;;15.32;8.13;;;6.80;99.90;;;;;;5096074;28;20073;-78
2021/01/06 05:32:40;;;;;;;13.02;7.32;;;6.80;99.90;;;;;;5082517;28;20489;-77
2021/01/06 05:35:19;;;;;;;26.98;15.30;;;6.80;99.90;;;;;;5082137;28;20035;-76
2021/01/06 05:37:57;;;;;;;18.60;11.32;;;6.70;99.90;;;;;;5096269;28;20031;-78
2021/01/06 05:40:24;;;;;;;15.73;8.70;;;6.40;99.90;;;;;;5090160;28;20028;-75
2021/01/06 05:42:59;;;;;;;27.23;13.95;;;6.30;99.90;;;;;;5087621;28;20032;-77
2021/01/06 05:45:28;;;;;;;19.00;9.70;;;6.10;99.90;;;;;;5094309;28;20079;-76
2021/01/06 05:47:58;;;;;;;20.33;10.73;;;6.00;99.90;;;;;;5086787;28;20512;-77
2021/01/06 05:50:34;;;;;;;24.65;11.82;;;6.10;99.90;;;;;;5095845;28;20028;-75
2021/01/06 05:53:35;;;;;;;24.25;10.95;;;6.10;99.90;;;;;;5095906;28;20136;-75
2021/01/06 05:56:24;;;;;;;18.15;8.88;;;6.20;99.90;;;;;;5097979;28;20024;-75
2021/01/06 05:59:19;;;;;;;20.45;10.43;;;6.20;99.90;;;;;;5045517;28;20111;-76
2021/01/06 06:02:22;;;;;;;22.45;11.75;;;6.10;99.90;;;;;;5088157;28;20076;-76
2021/01/06 06:05:26;;;;;;;29.48;12.48;;;6.20;99.90;;;;;;5083052;28;20024;-76
2021/01/06 06:08:17;;;;;;;32.63;13.73;;;6.20;99.90;;;;;;5094718;28;20028;-75
2021/01/06 06:11:22;;;;;;;29.55;14.80;;;6.30;99.90;;;;;;5077467;28;20377;-76
2021/01/06 06:14:19;;;;;;;31.77;12.48;;;6.40;99.90;;;;;;5053686;28;20052;-76
2021/01/06 06:17:11;;;;;;;11.98;6.13;;;6.50;99.90;;;;;;5083663;28;20040;-76
2021/01/06 06:19:47;;;;;;;12.15;5.93;;;6.60;99.90;;;;;;5094048;28;20036;-75
2021/01/06 06:22:30;;;;;;;9.57;5.05;;;6.80;99.90;;;;;;5094821;28;20106;-75
2021/01/06 06:24:58;;;;;;;10.65;4.68;;;6.80;99.90;;;;;;5095100;28;20024;-76
2021/01/06 06:27:47;;;;;;;19.67;6.57;;;6.80;99.90;;;;;;5095203;28;20107;-77
2021/01/06 06:30:29;;;;;;;8.73;5.28;;;6.80;99.90;;;;;;5089072;28;20073;-76
2021/01/06 06:32:55;;;;;;;20.45;7.50;;;6.80;99.90;;;;;;5086280;28;20115;-75
2021/01/06 06:35:45;;;;;;;21.05;7.85;;;6.70;99.90;;;;;;5077289;28;20111;-75
2021/01/06 06:38:10;;;;;;;20.15;8.38;;;6.70;99.90;;;;;;5095033;28;20489;-76
2021/01/06 06:40:51;;;;;;;39.55;17.80;;;6.60;99.90;;;;;;5089995;28;20159;-77
2021/01/06 06:43:25;;;;;;;39.83;18.65;;;6.50;99.90;;;;;;5087333;28;20117;-75
2021/01/06 06:46:25;;;;;;;20.77;10.02;;;6.40;99.90;;;;;;5080468;28;20035;-75
2021/01/06 06:49:03;;;;;;;25.33;13.05;;;6.50;99.90;;;;;;5063311;28;20039;-76
2021/01/06 06:51:41;;;;;;;19.98;10.75;;;6.40;99.90;;;;;;5094607;28;20027;-76
2021/01/06 06:54:12;;;;;;;13.13;7.03;;;6.50;99.90;;;;;;5090837;28;20017;-76
2021/01/06 06:56:41;;;;;;;13.55;6.63;;;6.60;99.90;;;;;;5073965;28;20020;-76
2021/01/06 06:59:16;;;;;;;14.68;6.55;;;6.70;99.90;;;;;;5088345;28;20027;-76
2021/01/06 07:01:47;;;;;;;17.38;6.82;;;6.70;99.90;;;;;;5084319;28;20093;-76
2021/01/06 07:04:24;;;;;;;10.68;5.78;;;6.80;99.90;;;;;;5079826;28;20096;-76
2021/01/06 07:06:56;;;;;;;12.98;5.43;;;7.00;99.90;;;;;;5094668;28;20031;-76
2021/01/06 07:09:32;;;;;;;9.02;5.18;;;7.00;99.90;;;;;;5075705;28;20027;-76
2021/01/06 07:12:12;;;;;;;11.90;5.18;;;7.00;99.90;;;;;;5074618;28;20024;-75
2021/01/06 07:14:49;;;;;;;15.57;7.25;;;7.00;99.90;;;;;;5091391;28;20458;-74
2021/01/06 07:17:32;;;;;;;9.50;5.20;;;7.10;99.90;;;;;;5092823;28;20052;-75
2021/01/06 07:20:02;;;;;;;9.63;5.75;;;7.20;99.90;;;;;;5091165;28;20035;-75
2021/01/06 07:22:35;;;;;;;14.40;6.32;;;7.20;99.90;;;;;;5092749;28;20036;-75
2021/01/06 07:25:19;;;;;;;;;;;7.30;99.90;;;;;;5069408;28;20950;-77
2021/01/06 07:27:50;;;;;;;8.27;5.20;;;7.40;99.90;;;;;;5101265;28;19980;-75
2021/01/06 07:30:34;;;;;;;10.23;6.22;;;7.40;99.90;;;;;;5096165;28;20442;-76
2021/01/06 07:33:11;;;;;;;11.05;6.63;;;7.50;99.90;;;;;;5092919;28;20406;-76
2021/01/06 07:35:39;;;;;;;10.43;6.72;;;7.60;99.90;;;;;;5092482;28;20081;-77
2021/01/06 07:38:07;;;;;;;16.08;6.80;;;7.70;99.90;;;;;;5092762;28;20074;-77
2021/01/06 07:40:36;;;;;;;16.52;7.35;;;7.80;99.90;;;;;;5092617;28;20028;-75
2021/01/06 07:43:16;;;;;;;16.48;8.65;;;7.80;99.90;;;;;;5093661;28;20390;-76
2021/01/06 07:45:57;;;;;;;35.55;18.67;;;7.90;99.90;;;;;;5092555;28;20024;-75
2021/01/06 07:48:38;;;;;;;55.58;27.85;;;7.90;99.90;;;;;;5058164;28;20374;-77
2021/01/06 07:51:39;;;;;;;73.53;37.33;;;7.90;99.90;;;;;;5061316;28;20489;-76
2021/01/06 07:54:08;;;;;;;67.55;34.42;;;7.80;99.90;;;;;;5073769;28;20381;-77
2021/01/06 07:56:49;;;;;;;50.17;25.65;;;7.70;99.90;;;;;;5091891;28;20081;-77
2021/01/06 07:59:43;;;;;;;48.88;28.23;;;7.80;99.90;;;;;;5091432;28;20012;-78
2021/01/06 08:02:11;;;;;;;;;;;7.80;99.90;;;;;;5090243;28;20051;-76
2021/01/06 08:04:54;;;;;;;61.05;30.85;;;7.70;99.90;;;;;;5092584;28;19910;-76
2021/01/06 08:07:21;;;;;;;61.22;33.72;;;7.70;99.90;;;;;;5092269;28;20351;-76
2021/01/06 08:09:48;;;;;;;39.50;22.50;;;7.80;99.90;;;;;;5073119;28;20032;-75
2021/01/06 08:12:43;;;;;;;57.33;28.02;;;8.00;99.90;;;;;;5092743;28;20390;-76
2021/01/06 08:15:17;;;;;;;61.75;30.55;;;8.10;99.90;;;;;;5091213;28;20020;-75
2021/01/06 08:17:49;;;;;;;68.10;33.33;;;8.10;99.90;;;;;;5073953;28;20024;-76
2021/01/06 08:20:23;;;;;;;45.17;23.45;;;8.10;99.90;;;;;;5091862;28;20406;-75
2021/01/06 08:23:17;;;;;;;57.17;30.35;;;8.10;99.90;;;;;;5093074;28;20029;-75
2021/01/06 08:26:15;;;;;;;45.08;21.85;;;8.10;99.90;;;;;;5092404;28;20024;-75
2021/01/06 08:28:41;;;;;;;57.40;27.48;;;8.20;99.90;;;;;;5075996;28;20051;-77
2021/01/06 08:31:27;;;;;;;55.65;27.33;;;8.20;99.90;;;;;;5091974;28;20390;-76
2021/01/06 08:33:56;;;;;;;62.15;30.45;;;8.20;99.90;;;;;;5091951;28;20032;-76
2021/01/06 08:36:24;;;;;;;50.28;26.70;;;8.20;99.90;;;;;;5091956;28;20024;-76
2021/01/06 08:39:31;;;;;;;47.75;24.85;;;8.40;99.90;;;;;;5091844;28;20150;-75
2021/01/06 08:42:25;;;;;;;46.50;25.67;;;8.60;99.90;;;;;;5088436;28;20127;-75
2021/01/06 08:44:54;;;;;;;;;;;8.60;99.90;;;;;;5078563;28;20024;-76
2021/01/06 08:47:40;;;;;;;55.05;28.35;;;8.60;99.90;;;;;;5085158;28;19982;-75
2021/01/06 08:50:29;;;;;;;45.83;25.77;;;8.60;99.90;;;;;;5095499;28;20064;-78
2021/01/06 08:53:01;;;;;;;51.20;29.25;;;8.70;99.90;;;;;;5098751;28;20028;-76
2021/01/06 08:55:37;;;;;;;37.97;20.70;;;8.80;99.90;;;;;;5090084;28;20020;-77
2021/01/06 08:58:13;;;;;;;70.53;37.40;;;9.00;99.90;;;;;;5094158;28;20091;-76
2021/01/06 09:00:42;;;;;;;45.20;24.85;;;9.00;99.90;;;;;;5090723;28;20060;-77
2021/01/06 09:03:07;;;;;;;32.47;18.90;;;9.30;99.90;;;;;;5090009;28;20024;-76
2021/01/06 09:06:04;;;;;;;10.95;7.13;;;9.60;99.90;;;;;;5092356;28;20039;-77
2021/01/06 09:08:36;;;;;;;11.23;6.30;;;9.60;99.90;;;;;;5083746;28;20028;-77
2021/01/06 09:11:17;;;;;;;11.13;5.93;;;9.80;99.90;;;;;;5092309;28;20466;-76
2021/01/06 09:14:09;;;;;;;12.35;5.63;;;10.10;99.90;;;;;;5063359;28;20190;-77
2021/01/06 09:16:49;;;;;;;8.73;4.75;;;10.20;99.90;;;;;;5060419;28;20111;-76
2021/01/06 09:19:39;;;;;;;7.47;4.85;;;10.80;99.90;;;;;;5072216;28;20039;-77
2021/01/06 09:22:10;;;;;;;5.95;4.13;;;11.20;99.90;;;;;;5091692;28;20110;-77
2021/01/06 09:24:38;;;;;;;10.65;4.15;;;11.20;99.90;;;;;;5092177;28;20030;-77
2021/01/06 09:27:33;;;;;;;7.68;4.30;;;11.40;99.90;;;;;;5065421;28;20042;-78
2021/01/06 09:30:05;;;;;;;5.85;4.00;;;11.70;99.90;;;;;;5085827;28;20101;-76
2021/01/06 09:32:34;;;;;;;5.90;4.28;;;11.70;99.90;;;;;;5095942;28;20044;-77
2021/01/06 09:35:09;;;;;;;9.68;4.40;;;11.70;99.90;;;;;;5077501;28;20046;-75
2021/01/06 09:37:37;;;;;;;4.50;3.45;;;11.70;99.90;;;;;;5095376;28;20032;-75
2021/01/06 09:40:17;;;;;;;6.05;3.58;;;11.70;99.90;;;;;;5070799;28;20107;-75
2021/01/06 09:42:44;;;;;;;5.10;3.13;;;11.70;99.90;;;;;;5069337;28;20484;-76
2021/01/06 09:45:22;;;;;;;6.05;3.95;;;11.70;99.90;;;;;;5094281;28;20022;-75
2021/01/06 09:47:49;;;;;;;5.70;3.17;;;11.70;99.90;;;;;;5089322;28;20095;-77
2021/01/06 09:50:35;;;;;;;5.28;3.42;;;11.70;99.90;;;;;;5095541;28;20027;-77
2021/01/06 09:53:06;;;;;;;5.72;3.47;;;11.70;99.90;;;;;;5080322;28;20127;-75
2021/01/06 09:55:34;;;;;;;9.23;3.83;;;11.70;99.90;;;;;;5077584;28;20077;-75
2021/01/06 09:58:05;;;;;;;6.75;3.45;;;11.70;99.90;;;;;;5090880;28;20028;-83
2021/01/06 10:00:50;;;;;;;6.43;3.63;;;11.70;99.90;;;;;;5095026;28;20359;-76
2021/01/06 10:03:16;;;;;;;6.88;3.60;;;11.80;99.90;;;;;;5095743;28;20077;-78
2021/01/06 10:05:48;;;;;;;6.05;3.92;;;11.90;99.90;;;;;;5072406;28;20049;-77
2021/01/06 10:08:16;;;;;;;6.18;4.32;;;11.80;99.90;;;;;;5077233;28;20024;-79
2021/01/06 10:10:43;;;;;;;3.80;3.10;;;11.80;99.90;;;;;;5071674;28;20031;-78
2021/01/06 10:13:21;;;;;;;14.45;5.63;;;11.80;99.90;;;;;;5094782;28;20020;-75
2021/01/06 10:16:18;;;;;;;7.10;4.55;;;12.00;99.90;;;;;;5094642;28;20093;-79
2021/01/06 10:19:09;;;;;;;6.72;4.10;;;12.00;99.90;;;;;;5039521;28;20111;-76
2021/01/06 10:22:16;;;;;;;6.28;3.47;;;12.00;99.90;;;;;;5075807;28;20055;-80
2021/01/06 10:28:20;;;;;;;7.57;3.42;;;12.00;99.90;;;;;;5093280;28;20028;-78
2021/01/06 10:31:02;;;;;;;4.90;3.42;;;12.10;99.90;;;;;;5085842;28;20040;-79
2021/01/06 10:33:29;;;;;;;6.88;3.50;;;12.20;99.90;;;;;;5097710;28;20032;-74
2021/01/06 10:36:05;;;;;;;5.15;3.28;;;12.20;99.90;;;;;;5094951;28;20457;-76
2021/01/06 10:38:52;;;;;;;4.75;2.95;;;12.20;99.90;;;;;;5095163;28;20024;-75
2021/01/06 10:41:32;;;;;;;4.72;3.20;;;12.10;99.90;;;;;;5076680;28;20043;-77
2021/01/06 10:44:00;;;;;;;6.72;4.05;;;12.10;99.90;;;;;;5076992;28;20031;-76
2021/01/06 10:46:53;;;;;;;4.80;3.65;;;12.00;99.90;;;;;;5095311;28;20028;-77
2021/01/06 10:49:18;;;;;;;6.47;3.60;;;12.10;99.90;;;;;;5090353;28;20047;-75
2021/01/06 10:51:54;;;;;;;7.85;4.03;;;12.10;99.90;;;;;;5094769;28;20028;-76
2021/01/06 10:54:34;;;;;;;8.68;4.25;;;12.10;99.90;;;;;;5094370;28;20025;-77
2021/01/06 10:57:01;;;;;;;5.97;4.65;;;12.20;99.90;;;;;;5094467;28;20024;-75
2021/01/06 10:59:26;;;;;;;5.97;4.07;;;12.20;99.90;;;;;;5093097;28;20085;-78
2021/01/06 11:02:25;;;;;;;13.07;4.20;;;12.20;99.90;;;;;;5071195;28;20024;-81
2021/01/06 11:05:08;;;;;;;5.05;3.22;;;12.20;99.90;;;;;;5072135;28;20370;-76
2021/01/06 11:07:58;;;;;;;5.40;3.35;;;12.20;99.90;;;;;;5073879;28;20031;-78
2021/01/06 11:10:41;;;;;;;4.60;2.88;;;12.20;99.90;;;;;;5092371;28;20097;-76
2021/01/06 11:13:39;;;;;;;5.90;3.63;;;12.20;99.90;;;;;;5090944;28;20030;-82
2021/01/06 11:16:12;;;;;;;8.52;3.90;;;12.20;99.90;;;;;;5080752;28;20153;-79
2021/01/06 11:18:41;;;;;;;7.68;4.32;;;12.20;99.90;;;;;;5094319;28;20047;-77
2021/01/06 11:21:39;;;;;;;7.72;3.78;;;12.20;99.90;;;;;;5095909;28;20078;-77
2021/01/06 11:24:32;;;;;;;4.43;3.08;;;12.20;99.90;;;;;;5076041;28;20098;-77
2021/01/06 11:27:00;;;;;;;4.20;3.08;;;12.30;99.90;;;;;;5075381;28;20111;-78
2021/01/06 11:29:58;;;;;;;6.80;4.32;;;12.30;99.90;;;;;;5075687;28;20024;-77
2021/01/06 11:32:28;;;;;;;5.70;3.47;;;12.30;99.90;;;;;;5074364;28;20122;-77
2021/01/06 11:35:28;;;;;;;7.03;2.97;;;12.30;99.90;;;;;;5092683;28;20049;-78
2021/01/06 11:37:55;;;;;;;3.40;2.63;;;12.30;99.90;;;;;;5092498;28;20024;-75
2021/01/06 11:40:27;;;;;;;5.65;2.72;;;12.40;99.90;;;;;;5076754;28;20036;-78
2021/01/06 11:43:45;;;;;;;4.32;3.05;;;12.40;99.90;;;;;;5069527;28;20460;-78
2021/01/06 11:46:25;;;;;;;6.25;3.00;;;12.40;99.90;;;;;;5026632;28;20029;-77
2021/01/06 11:49:10;;;;;;;3.45;2.70;;;12.50;99.90;;;;;;5023249;28;20475;-76
2021/01/06 11:51:36;;;;;;;8.07;4.07;;;12.50;99.90;;;;;;5014831;28;20379;-79
2021/01/06 11:54:27;;;;;;;12.23;4.90;;;12.50;99.90;;;;;;5010444;28;20126;-76
2021/01/06 11:57:25;;;;;;;9.73;5.43;;;12.40;99.90;;;;;;5000365;28;20120;-79
2021/01/06 12:00:12;;;;;;;10.85;6.63;;;12.50;99.90;;;;;;5020008;28;20057;-83
2021/01/06 12:02:50;;;;;;;13.13;7.88;;;12.50;99.90;;;;;;5017396;28;20073;-78
2021/01/06 12:05:31;;;;;;;62.05;31.73;;;12.60;99.90;;;;;;5030676;28;20025;-76
2021/01/06 12:08:03;;;;;;;26.05;17.15;;;12.70;99.90;;;;;;5025483;28;20029;-81
2021/01/06 12:10:48;;;;;;;31.42;15.32;;;12.10;99.90;;;;;;5012665;28;20049;-73
2021/01/06 12:13:43;;;;;;;32.10;16.60;;;11.90;99.90;;;;;;5022904;28;20034;-76
2021/01/06 12:16:38;;;;;;;34.35;18.67;;;11.60;99.90;;;;;;5018724;28;20558;-77
2021/01/06 12:19:21;;;;;;;30.25;19.35;;;11.30;99.90;;;;;;4970681;28;20039;-75
2021/01/06 12:21:54;;;;;;;33.63;18.42;;;11.10;99.90;;;;;;4979862;28;20373;-75
2021/01/06 12:24:29;;;;;;;42.85;21.63;;;10.80;99.90;;;;;;4971261;28;20027;-74
2021/01/06 12:27:17;;;;;;;40.05;20.80;;;10.70;99.90;;;;;;4990198;28;20088;-74
2021/01/06 12:29:48;;;;;;;34.08;15.93;;;10.60;99.90;;;;;;4970627;28;20039;-75
2021/01/06 12:32:50;;;;;;;42.92;21.85;;;10.40;99.90;;;;;;4990382;28;20054;-76
2021/01/06 12:35:19;;;;;;;48.47;24.73;;;10.20;99.90;;;;;;4990104;28;20034;-73
2021/01/06 12:38:03;;;;;;;39.10;20.75;;;10.30;99.90;;;;;;4990526;28;20432;-74
2021/01/06 12:40:29;;;;;;;60.00;31.35;;;10.10;99.90;;;;;;4986343;28;20042;-75
2021/01/06 12:43:04;;;;;;;54.38;29.17;;;10.10;99.90;;;;;;4969233;28;20074;-78
2021/01/06 12:45:37;;;;;;;45.28;26.25;;;10.20;99.90;;;;;;4987186;28;20579;-76
2021/01/06 12:48:07;;;;;;;44.17;23.10;;;10.30;99.90;;;;;;4991933;28;20046;-76
2021/01/06 12:51:02;;;;;;;44.53;24.23;;;10.00;99.90;;;;;;4997115;28;20543;-74
2021/01/06 12:53:32;;;;;;;62.53;34.78;;;9.90;99.90;;;;;;4984021;28;20049;-78
2021/01/06 12:56:30;;;;;;;52.63;30.45;;;10.00;99.90;;;;;;5047285;28;20036;-75
2021/01/06 12:59:02;;;;;;;49.90;28.17;;;9.90;99.90;;;;;;5093802;28;20024;-76
2021/01/06 13:02:03;;;;;;;42.45;25.10;;;9.80;99.90;;;;;;5095969;28;20024;-76
2021/01/06 13:04:33;;;;;;;59.08;31.20;;;9.80;99.90;;;;;;5060868;28;20039;-78
2021/01/06 13:07:27;;;;;;;43.65;27.45;;;9.80;99.90;;;;;;5095214;28;20511;-74
2021/01/06 13:10:05;;;;;;;34.75;21.85;;;9.70;99.90;;;;;;5094958;28;20495;-82
2021/01/06 13:12:46;;;;;;;52.17;29.42;;;9.60;99.90;;;;;;5094260;28;20483;-76
2021/01/06 13:15:23;;;;;;;39.17;23.17;;;9.70;99.90;;;;;;5093583;28;20375;-77
2021/01/06 13:18:11;;;;;;;54.35;30.67;;;9.70;99.90;;;;;;5058192;28;20077;-77
2021/01/06 13:20:45;;;;;;;45.13;28.70;;;9.70;99.90;;;;;;5078359;28;20085;-78
2021/01/06 13:23:17;;;;;;;54.83;29.40;;;9.60;99.90;;;;;;5074033;28;20459;-77
2021/01/06 13:25:46;;;;;;;54.08;30.98;;;9.60;99.90;;;;;;5090181;28;20024;-77
2021/01/06 13:28:27;;;;;;;54.17;31.60;;;9.80;99.90;;;;;;5079087;28;20028;-80
2021/01/06 13:31:28;;;;;;;52.65;30.15;;;9.80;99.90;;;;;;5069704;28;20044;-78
2021/01/06 13:34:24;;;;;;;47.38;29.35;;;9.90;99.90;;;;;;5096576;28;20103;-77